Terminal Aerodrome Forecast
Issued by NWS

Home | Current Version | Previous Version | Text Only | Print | Product List | Glossary On
Versions: 1 2 3 4 5 6 7 8 9 10 11 12 13 14 15 16 17 18 19 20 21
000
FTUS41 KPBZ 282332
TAFDUJ
TAF
KDUJ 282332Z 2900/2924 23005KT 4SM -TSRA BKN050CB OVC080
      TEMPO 2900/2901 1SM TSRA
     FM290200 27003KT P6SM BKN150
     FM290500 VRB03KT 4SM BR BKN100
     FM290900 VRB03KT 2SM BR SCT040
     FM291400 02004KT P6SM SCT040=

USA.gov is the U.S. government's official web portal to all federal, state and local government web resources and services.